Hovedside
METAR-TAF:

METAR-TAF

Lufthavner :

El Palmar

Santa Ana, El Salvador

breddegrad: 13-59N, lengdegrad: 089-34W, høyde over havet: 725 m

Gjeldene værobservasjon

Denne rapporten ble laget for 5 timer og 25 minutter siden, klokken 22:50 UTC
Vind 2 kt fra Sørvest
Temperatur 31°C
Luftfuktighet 52%
Trykk 1015 hPa
Sikt 10 km eller mer
Få skyer i en høyde av 3700 ft

METAR: MSSA 192250Z 23002KT 9999 FEW037 31/20 Q1014 A2996

Tid: 22:15 (04:15 UTC)


TAF: fraværende

Værobservasjoner og værvarsel for over 4000 flyplasser (METAR- og TAF-rapporter).

Tilgjengelige stasjoner er representert av de røde og gule prikkene på kartet.

Hold musepekeren over prikken for å se navnet på stasjonen.

Klikk så for å se værobservasjoner og -varsler.

For å forandre kartet kan du klikke på den grønne knappen med svart kryss for å zoome inn, på den grønne knappen med strek for å zoome ut, eller på de grønne pilene for å se tilstøtende kart.


METAR-TAF: